Главная страница
METAR-TAF:

METAR-TAF

Аэропорты :

Пардубице, Чехия

широта: 50-00-48N, долгота: 15-44-19E, высота над уровнем моря: 226 м

Текущие метеонаблюдения

Эта сводка был подготовлена 39 минут назад, в 20:00 UTC
Ветер 5 Узел от восточный
Температура 13°C
Влажность 47%
Давление 1029 hPa
Видимость 10 км и более
Нет облачности ниже 1500 м, и нет кучево-дождевой облачности

METAR: LKPD 182000Z 10005KT CAVOK 13/02 Q1029 RMK BLACK

Время: 22:39 (20:39 UTC)

Прогноз

Эта сводка был подготовлена 3 часа и 39 минут назад, в 17:00 UTC
Прогноз действительный с 18-го 18 UTC до 19-го 18 UTC
Ветер 9 Узел от восточно-юго-восточный
Видимость 10 км и более
Нет облачности ниже 1500 м, и нет кучево-дождевой облачности
изменения
С 18-го 20 UTC до 18-го 22 UTC
Ветер 4 Узел от восточный
изменения
С 19-го 11 UTC до 19-го 13 UTC
Ветер 8 Узел от восточно-северо-восточный

TAF: LKPD 181700Z 1818/1918 12009KT CAVOK BECMG 1820/1822 09004KT BECMG 1911/1913 07008KT

Метеонаблюдения и прогнозы для более 4000 аэропортов (сводки METAR и TAF).

Имеющиеся станции представлены на карте желтыми и красными точками.

Чтобы увидеть название станции, наведите на нее мышь.

Затем щелкните, чтобы увидеть метеонаблюдения и метеопрогнозы.

Управление картой: чтобы увеличить масштаб, щелкните зеленые кнопки с черным крестиком; чтобы уменьшить масштаб, щелкните зеленую кнопку с тире; для просмотра соседних карт щелкайте зеленые стрелки.


METAR-TAF: